Time;durP1;ratioP1;P1;durP2;ratioP2;P2;SDS_P1;SDS_P2;PMS_P1;PMS_P2;Temp;Humidity;BMP_temperature;BMP_pressure;BME280_temperature;BME280_humidity;BME280_pressure;Samples;Min_cycle;Max_cycle;Signal;HPM_P1;HPM_P2
2022/01/14 01:20:22;;;;;;;32.75;15.07;;;0.10;99.90;;;;;;4999734;28;20117;-90
2022/01/14 01:43:54;;;;;;;30.98;14.80;;;0.00;99.90;;;;;;5012104;28;20045;-91
2022/01/14 01:54:07;;;;;;;31.33;15.13;;;-0.10;99.90;;;;;;4954880;28;20167;-90
2022/01/14 02:04:47;;;;;;;28.77;14.90;;;-0.30;99.90;;;;;;4859242;29;20257;-90
2022/01/14 02:36:53;;;;;;;39.15;17.33;;;-0.30;99.90;;;;;;4996344;28;20037;-90
2022/01/14 02:40:40;;;;;;;36.08;15.43;;;-0.30;99.90;;;;;;4931553;29;20055;-90
2022/01/14 02:47:18;;;;;;;28.83;15.25;;;-0.20;99.90;;;;;;4981739;28;20037;-91
2022/01/14 02:57:46;;;;;;;24.55;12.88;;;-0.10;99.90;;;;;;4991250;28;20109;-91
2022/01/14 03:08:07;;;;;;;32.92;16.10;;;-0.20;99.90;;;;;;4802943;29;20099;-89
2022/01/14 03:15:02;;;;;;;32.90;15.50;;;-0.20;99.90;;;;;;4767639;30;20073;-90
2022/01/14 03:18:03;;;;;;;;;;;-0.20;99.90;;;;;;4801646;29;20050;-90
2022/01/14 03:21:52;;;;;;;30.55;14.68;;;-0.20;99.90;;;;;;4832490;29;19912;-91
2022/01/14 03:38:55;;;;;;;28.92;14.40;;;-0.30;99.90;;;;;;4838818;29;20064;-91
2022/01/14 03:56:09;;;;;;;31.10;14.38;;;-0.30;99.90;;;;;;4852801;29;20133;-90
2022/01/14 04:09:43;;;;;;;32.42;14.57;;;-0.20;99.90;;;;;;4805567;29;20103;-90
2022/01/14 04:22:13;;;;;;;39.00;17.58;;;-0.30;99.90;;;;;;5050443;28;20052;-67
2022/01/14 04:24:39;;;;;;;35.30;16.60;;;-0.30;99.90;;;;;;5051231;28;20029;-67
2022/01/14 04:27:05;;;;;;;33.80;16.17;;;-0.30;99.90;;;;;;5032315;28;20154;-67
2022/01/14 04:29:32;;;;;;;33.42;16.02;;;-0.30;99.90;;;;;;5051636;28;20028;-67
2022/01/14 04:31:58;;;;;;;37.83;17.50;;;-0.30;99.90;;;;;;5048248;28;20122;-67
2022/01/14 04:34:24;;;;;;;38.00;16.80;;;-0.30;99.90;;;;;;5039152;28;20017;-66
2022/01/14 04:36:50;;;;;;;30.30;16.00;;;-0.40;99.90;;;;;;5034933;28;20028;-66
2022/01/14 04:39:15;;;;;;;29.55;15.10;;;-0.40;99.90;;;;;;5034944;28;20029;-68
2022/01/14 04:41:41;;;;;;;35.33;17.40;;;-0.40;99.90;;;;;;5034206;28;20107;-66
2022/01/14 04:44:06;;;;;;;30.02;15.40;;;-0.50;99.90;;;;;;5042834;28;20028;-67
2022/01/14 04:46:59;;;;;;;30.63;16.42;;;-0.50;99.90;;;;;;5040625;28;20436;-67
2022/01/14 04:49:21;;;;;;;29.48;15.07;;;-0.50;99.90;;;;;;5057734;28;20037;-67
2022/01/14 04:51:47;;;;;;;32.15;15.98;;;-0.40;99.90;;;;;;5034842;28;20025;-67
2022/01/14 04:54:13;;;;;;;34.60;16.70;;;-0.40;99.90;;;;;;5034152;28;20530;-66
2022/01/14 04:56:38;;;;;;;33.58;15.88;;;-0.40;99.90;;;;;;5034908;28;20021;-67
2022/01/14 04:59:04;;;;;;;33.45;16.60;;;-0.30;99.90;;;;;;5033187;28;20025;-67
2022/01/14 05:01:31;;;;;;;34.30;16.55;;;-0.40;99.90;;;;;;5034420;28;20024;-68
2022/01/14 05:03:58;;;;;;;37.03;16.70;;;-0.50;99.90;;;;;;5033216;28;20033;-66
2022/01/14 05:06:24;;;;;;;34.42;17.23;;;-0.50;99.90;;;;;;5034328;28;20033;-67
2022/01/14 05:08:50;;;;;;;35.13;15.50;;;-0.50;99.90;;;;;;5033176;28;20033;-67
2022/01/14 05:13:41;;;;;;;32.78;15.90;;;-0.50;99.90;;;;;;5059291;28;20542;-66
2022/01/14 05:16:07;;;;;;;33.70;16.35;;;-0.50;99.90;;;;;;5042741;28;20075;-67
2022/01/14 05:18:34;;;;;;;34.60;16.33;;;-0.50;99.90;;;;;;5032855;28;20040;-68
2022/01/14 05:21:00;;;;;;;34.65;15.20;;;-0.60;99.90;;;;;;5058825;28;20032;-66
2022/01/14 05:23:25;;;;;;;35.72;16.48;;;-0.60;99.90;;;;;;5046007;28;20051;-67
2022/01/14 05:25:51;;;;;;;34.50;15.40;;;-0.60;99.90;;;;;;5033177;28;20047;-67
2022/01/14 05:28:17;;;;;;;33.28;15.50;;;-0.60;99.90;;;;;;5032680;28;20037;-67
2022/01/14 05:30:42;;;;;;;31.27;16.02;;;-0.60;99.90;;;;;;5034833;28;20480;-67
2022/01/14 05:33:08;;;;;;;35.65;17.38;;;-0.60;99.90;;;;;;5034713;28;20028;-66
2022/01/14 05:35:34;;;;;;;33.10;15.85;;;-0.60;99.90;;;;;;5041902;28;20461;-66
2022/01/14 05:38:00;;;;;;;37.78;15.90;;;-0.60;99.90;;;;;;5034770;28;20082;-67
2022/01/14 05:40:27;;;;;;;35.05;15.68;;;-0.70;99.90;;;;;;5034833;28;20102;-66
2022/01/14 05:42:53;;;;;;;29.98;14.10;;;-0.60;99.90;;;;;;5036616;28;20451;-66
2022/01/14 05:45:19;;;;;;;36.10;16.45;;;-0.60;99.90;;;;;;5050510;28;20025;-68
2022/01/14 05:47:45;;;;;;;31.45;15.63;;;-0.60;99.90;;;;;;5037582;28;20032;-68
2022/01/14 05:50:15;;;;;;;33.55;16.20;;;-0.60;99.90;;;;;;5037193;28;20074;-66
2022/01/14 05:52:41;;;;;;;37.42;16.80;;;-0.50;99.90;;;;;;5034669;28;20036;-67
2022/01/14 05:55:09;;;;;;;37.95;17.10;;;-0.50;99.90;;;;;;5034270;28;20037;-68
2022/01/14 05:57:37;;;;;;;33.63;17.25;;;-0.50;99.90;;;;;;5034572;28;20029;-68
2022/01/14 06:00:16;;;;;;;38.10;16.98;;;-0.50;99.90;;;;;;5033211;28;20086;-67
2022/01/14 06:02:42;;;;;;;34.33;15.93;;;-0.60;99.90;;;;;;5029997;28;20098;-66
2022/01/14 06:05:08;;;;;;;31.17;15.00;;;-0.60;99.90;;;;;;5032367;28;20539;-67
2022/01/14 06:07:34;;;;;;;31.20;15.32;;;-0.70;99.90;;;;;;5033036;28;20039;-67
2022/01/14 06:09:59;;;;;;;34.53;15.52;;;-0.70;99.90;;;;;;5034755;28;20098;-66
2022/01/14 06:12:25;;;;;;;33.42;15.40;;;-0.70;99.90;;;;;;5037123;28;20071;-66
2022/01/14 06:14:50;;;;;;;36.60;16.35;;;-0.70;99.90;;;;;;5043558;28;20104;-66
2022/01/14 06:17:16;;;;;;;34.58;16.55;;;-0.80;99.90;;;;;;5035233;28;20025;-67
2022/01/14 06:19:42;;;;;;;36.78;16.55;;;-0.80;99.90;;;;;;5053176;28;20530;-66
2022/01/14 06:22:07;;;;;;;31.23;15.50;;;-0.70;99.90;;;;;;5043383;28;20665;-66
2022/01/14 06:24:33;;;;;;;34.33;15.88;;;-0.80;99.90;;;;;;5041564;28;20058;-68
2022/01/14 06:26:59;;;;;;;35.80;15.60;;;-0.70;99.90;;;;;;5050542;28;20107;-66
2022/01/14 06:29:24;;;;;;;30.98;15.18;;;-0.70;99.90;;;;;;5032801;28;20077;-67
2022/01/14 06:31:50;;;;;;;32.88;15.23;;;-0.70;99.90;;;;;;5034160;28;20024;-67
2022/01/14 06:34:16;;;;;;;36.45;16.50;;;-0.70;99.90;;;;;;5038744;28;20033;-66
2022/01/14 06:36:42;;;;;;;27.92;14.35;;;-0.70;99.90;;;;;;5033540;28;20053;-66
2022/01/14 06:39:09;;;;;;;30.48;14.55;;;-0.70;99.90;;;;;;5049710;28;20075;-66
2022/01/14 06:41:34;;;;;;;34.53;15.35;;;-0.70;99.90;;;;;;5032533;28;20114;-66
2022/01/14 06:44:00;;;;;;;34.53;17.05;;;-0.60;99.90;;;;;;5038124;28;20473;-66
2022/01/14 06:46:26;;;;;;;32.53;15.32;;;-0.60;99.90;;;;;;5049293;28;20511;-66
2022/01/14 06:48:51;;;;;;;31.40;15.00;;;-0.60;99.90;;;;;;5033071;28;20036;-65
2022/01/14 06:51:17;;;;;;;29.52;15.25;;;-0.50;99.90;;;;;;5033253;28;20028;-66
2022/01/14 06:53:43;;;;;;;31.52;15.65;;;-0.50;99.90;;;;;;5033276;28;20036;-67
2022/01/14 06:56:11;;;;;;;31.20;14.52;;;-0.50;99.90;;;;;;5033503;28;20033;-65
2022/01/14 06:58:37;;;;;;;75.53;35.45;;;-0.50;99.90;;;;;;5032170;28;20028;-66
2022/01/14 07:01:03;;;;;;;30.75;15.43;;;-0.50;99.90;;;;;;5033345;28;20117;-66
2022/01/14 07:03:29;;;;;;;31.25;15.77;;;-0.50;99.90;;;;;;5033808;28;20051;-69
2022/01/14 07:05:55;;;;;;;30.38;14.63;;;-0.60;99.90;;;;;;5032871;28;20493;-69
2022/01/14 07:08:21;;;;;;;28.63;14.77;;;-0.60;99.90;;;;;;5048735;28;20036;-66
2022/01/14 07:10:46;;;;;;;30.73;14.85;;;-0.50;99.90;;;;;;5032894;28;20029;-66
2022/01/14 07:13:12;;;;;;;31.30;15.35;;;-0.50;99.90;;;;;;5032725;28;20041;-66
2022/01/14 07:15:37;;;;;;;30.35;14.80;;;-0.50;99.90;;;;;;5048531;28;20472;-67
2022/01/14 07:18:03;;;;;;;30.85;14.63;;;-0.50;99.90;;;;;;5049035;28;20032;-66
2022/01/14 07:20:29;;;;;;;29.50;15.00;;;-0.60;99.90;;;;;;5032574;28;20028;-66
2022/01/14 07:22:55;;;;;;;29.20;15.52;;;-0.60;99.90;;;;;;5061313;28;20103;-66
2022/01/14 07:25:20;;;;;;;30.95;14.35;;;-0.60;99.90;;;;;;5045052;28;20083;-67
2022/01/14 07:27:46;;;;;;;30.00;13.90;;;-0.60;99.90;;;;;;5032634;28;20459;-66
2022/01/14 07:30:14;;;;;;;29.00;14.73;;;-0.60;99.90;;;;;;5049104;28;20047;-67
2022/01/14 07:32:40;;;;;;;36.60;16.92;;;-0.50;99.90;;;;;;5033296;28;20056;-67
2022/01/14 07:35:07;;;;;;;36.70;18.33;;;-0.50;99.90;;;;;;5031002;28;20143;-67
2022/01/14 07:37:32;;;;;;;35.42;16.92;;;-0.60;99.90;;;;;;5031446;28;20029;-67
2022/01/14 07:39:58;;;;;;;55.63;25.52;;;-0.60;99.90;;;;;;5030859;28;20021;-65
2022/01/14 07:42:24;;;;;;;33.83;15.80;;;-0.50;99.90;;;;;;5015858;28;20030;-66
2022/01/14 07:44:50;;;;;;;31.92;16.98;;;-0.50;99.90;;;;;;5036687;28;20057;-66
2022/01/14 07:47:16;;;;;;;30.67;14.63;;;-0.40;99.90;;;;;;5032163;28;20029;-66
2022/01/14 07:49:41;;;;;;;35.00;15.40;;;-0.40;99.90;;;;;;5032438;28;20029;-67
2022/01/14 07:52:07;;;;;;;30.52;16.38;;;-0.40;99.90;;;;;;5032080;28;20082;-66
2022/01/14 07:54:33;;;;;;;34.40;16.13;;;-0.40;99.90;;;;;;5047415;28;20037;-67
2022/01/14 07:57:00;;;;;;;29.55;15.07;;;-0.50;99.90;;;;;;5040503;28;20468;-66
2022/01/14 07:59:28;;;;;;;31.95;15.18;;;-0.50;99.90;;;;;;5032744;28;20119;-67
2022/01/14 08:01:55;;;;;;;33.90;15.90;;;-0.50;99.90;;;;;;5032709;28;20029;-66
2022/01/14 08:04:24;;;;;;;29.52;15.00;;;-0.50;99.90;;;;;;5041404;28;20024;-69
2022/01/14 08:06:53;;;;;;;30.85;15.27;;;-0.50;99.90;;;;;;5048302;28;20036;-66
2022/01/14 08:09:19;;;;;;;32.17;15.15;;;-0.50;99.90;;;;;;5038867;28;20060;-66
2022/01/14 08:11:45;;;;;;;30.33;15.32;;;-0.50;99.90;;;;;;5029856;28;20032;-66
2022/01/14 08:14:13;;;;;;;32.15;15.35;;;-0.40;99.90;;;;;;5033093;28;20575;-66
2022/01/14 08:16:39;;;;;;;34.17;16.15;;;-0.30;99.90;;;;;;5032545;28;20112;-66
2022/01/14 08:19:05;;;;;;;29.38;14.30;;;-0.30;99.90;;;;;;5030939;28;20029;-66
2022/01/14 08:21:31;;;;;;;32.75;15.65;;;-0.20;99.90;;;;;;5030928;28;20547;-66
2022/01/14 08:23:57;;;;;;;35.08;15.73;;;-0.20;99.90;;;;;;5032922;28;20025;-66
2022/01/14 08:26:24;;;;;;;32.42;15.60;;;-0.20;99.90;;;;;;5036293;28;20025;-66
2022/01/14 08:28:50;;;;;;;32.28;15.95;;;-0.20;99.90;;;;;;5034882;28;20040;-66
2022/01/14 08:31:19;;;;;;;32.45;15.07;;;-0.20;99.90;;;;;;5036266;28;20021;-66
2022/01/14 08:33:46;;;;;;;29.50;15.05;;;-0.20;99.90;;;;;;5036227;28;20025;-66
2022/01/14 08:36:12;;;;;;;28.48;14.63;;;-0.30;99.90;;;;;;5033051;28;20017;-66
2022/01/14 08:38:38;;;;;;;31.50;15.45;;;-0.20;99.90;;;;;;5047871;28;20036;-66
2022/01/14 08:41:05;;;;;;;30.70;15.20;;;-0.20;99.90;;;;;;5055628;28;20472;-66
2022/01/14 08:43:31;;;;;;;27.13;15.32;;;-0.20;99.90;;;;;;5051440;28;20028;-66
2022/01/14 08:46:02;;;;;;;30.50;15.18;;;-0.10;99.90;;;;;;5054271;28;20536;-66
2022/01/14 08:48:30;;;;;;;30.58;15.73;;;-0.10;99.90;;;;;;5069031;28;20027;-66
2022/01/14 08:50:56;;;;;;;32.10;15.20;;;0.00;99.90;;;;;;5036060;28;20128;-66
2022/01/14 08:53:22;;;;;;;38.25;17.52;;;0.00;99.90;;;;;;5036030;28;20027;-66
2022/01/14 08:55:48;;;;;;;35.45;16.73;;;0.10;99.90;;;;;;5035783;28;20702;-66
2022/01/14 08:58:14;;;;;;;33.70;15.95;;;0.10;99.90;;;;;;5034525;28;20017;-66
2022/01/14 09:00:39;;;;;;;32.63;16.45;;;0.10;99.90;;;;;;5035731;28;20545;-66
2022/01/14 09:03:06;;;;;;;30.17;15.13;;;0.20;99.90;;;;;;5035678;28;20029;-66
2022/01/14 09:05:32;;;;;;;29.15;16.58;;;0.20;99.90;;;;;;5035808;28;20029;-66
2022/01/14 09:07:59;;;;;;;36.10;15.68;;;0.20;99.90;;;;;;5034655;28;20033;-66
2022/01/14 09:10:25;;;;;;;32.45;15.07;;;0.30;99.90;;;;;;5035471;28;20052;-66
2022/01/14 09:12:51;;;;;;;29.85;15.23;;;0.30;99.90;;;;;;5035999;28;20143;-66
2022/01/14 09:15:19;;;;;;;35.67;16.50;;;0.40;99.90;;;;;;5039602;28;20021;-66
2022/01/14 09:17:44;;;;;;;33.72;17.33;;;0.40;99.90;;;;;;5054057;28;20021;-66
2022/01/14 09:20:12;;;;;;;33.22;15.90;;;0.40;99.90;;;;;;5051847;28;20484;-66
2022/01/14 09:22:37;;;;;;;35.83;17.48;;;0.40;99.90;;;;;;5035309;28;20504;-66
2022/01/14 09:25:05;;;;;;;34.40;16.67;;;0.40;99.90;;;;;;5035248;28;20037;-66
2022/01/14 09:27:32;;;;;;;32.70;17.02;;;0.50;99.90;;;;;;5034017;28;20029;-66
2022/01/14 09:29:59;;;;;;;32.22;15.93;;;0.50;99.90;;;;;;5034611;28;20040;-66
2022/01/14 09:32:25;;;;;;;29.15;15.35;;;0.50;99.90;;;;;;5049369;28;20442;-66
2022/01/14 09:34:51;;;;;;;29.05;15.18;;;0.50;99.90;;;;;;5033569;28;20037;-66
2022/01/14 09:37:17;;;;;;;33.47;16.55;;;0.60;99.90;;;;;;5032920;28;20024;-67
2022/01/14 09:39:43;;;;;;;30.17;15.82;;;0.60;99.90;;;;;;5049592;28;20032;-66
2022/01/14 09:42:16;;;;;;;30.33;16.20;;;0.70;99.90;;;;;;5036579;28;20412;-66
2022/01/14 09:44:43;;;;;;;29.40;14.98;;;0.70;99.90;;;;;;5051672;28;20044;-66
2022/01/14 09:47:09;;;;;;;33.20;16.17;;;0.70;99.90;;;;;;5032384;28;20029;-66
2022/01/14 09:49:37;;;;;;;29.00;15.48;;;0.80;99.90;;;;;;5033083;28;20037;-67
2022/01/14 09:52:03;;;;;;;31.20;15.68;;;0.80;99.90;;;;;;5028710;28;20029;-67
2022/01/14 09:54:28;;;;;;;31.48;15.15;;;0.90;99.90;;;;;;5045131;28;20496;-66
2022/01/14 09:56:54;;;;;;;29.25;14.77;;;1.00;99.90;;;;;;5029361;28;20021;-66
2022/01/14 09:59:20;;;;;;;28.90;14.60;;;1.10;99.90;;;;;;5019642;28;20236;-66
2022/01/14 10:01:48;;;;;;;25.98;14.75;;;1.10;99.90;;;;;;5050656;28;20113;-66
2022/01/14 10:04:23;;;;;;;29.45;15.18;;;1.20;99.90;;;;;;5050880;28;20389;-67
2022/01/14 10:06:59;;;;;;;30.83;14.57;;;1.20;99.90;;;;;;5050473;28;20078;-66
2022/01/14 10:09:38;;;;;;;28.35;14.43;;;1.30;99.90;;;;;;5034144;28;20504;-67
2022/01/14 10:12:17;;;;;;;31.17;15.23;;;1.40;99.90;;;;;;5050796;28;20025;-66
2022/01/14 10:14:56;;;;;;;27.77;14.45;;;1.50;99.90;;;;;;5055145;28;20029;-67
2022/01/14 10:17:23;;;;;;;24.85;13.80;;;1.60;99.90;;;;;;5046860;28;20025;-66
2022/01/14 10:19:49;;;;;;;27.38;14.75;;;1.60;99.90;;;;;;5067376;28;20035;-67
2022/01/14 10:22:29;;;;;;;27.33;14.45;;;1.70;99.90;;;;;;5067357;28;20060;-66
2022/01/14 10:25:05;;;;;;;43.92;22.02;;;1.70;99.90;;;;;;5032899;28;20036;-67
2022/01/14 10:27:33;;;;;;;30.13;15.18;;;1.80;99.90;;;;;;5049575;28;20075;-66
2022/01/14 10:30:10;;;;;;;25.23;13.70;;;1.80;99.90;;;;;;5047709;28;20098;-66
2022/01/14 10:32:37;;;;;;;26.55;14.65;;;1.90;99.90;;;;;;5039613;28;20036;-66
2022/01/14 10:35:09;;;;;;;25.90;14.77;;;2.00;99.90;;;;;;5045629;28;20481;-66
2022/01/14 10:37:35;;;;;;;23.87;13.67;;;2.00;99.90;;;;;;5030059;28;20032;-66
2022/01/14 10:40:04;;;;;;;24.33;13.45;;;2.10;99.90;;;;;;5033594;28;20109;-66
2022/01/14 10:42:34;;;;;;;28.88;14.13;;;2.10;99.90;;;;;;5053585;28;20393;-66
2022/01/14 10:45:28;;;;;;;28.05;15.30;;;2.20;99.90;;;;;;5039967;28;20028;-66
2022/01/14 10:47:55;;;;;;;26.63;14.68;;;2.20;99.90;;;;;;5054852;28;20502;-66
2022/01/14 10:50:30;;;;;;;25.58;13.27;;;2.30;99.90;;;;;;5040991;28;20504;-67
2022/01/14 10:52:56;;;;;;;23.90;13.85;;;2.30;99.90;;;;;;5034294;28;20082;-66
2022/01/14 10:55:30;;;;;;;25.13;13.68;;;2.30;99.90;;;;;;5033096;28;20025;-66
2022/01/14 10:57:57;;;;;;;27.30;13.35;;;2.40;99.90;;;;;;5032502;28;20040;-66
2022/01/14 11:00:24;;;;;;;22.85;12.18;;;2.40;99.90;;;;;;5032635;28;20056;-66
2022/01/14 11:02:53;;;;;;;20.92;12.27;;;2.40;99.90;;;;;;5033711;28;20466;-66
2022/01/14 11:05:22;;;;;;;27.27;14.02;;;2.50;99.90;;;;;;5033199;28;20037;-67
2022/01/14 11:07:49;;;;;;;23.75;13.45;;;2.60;99.90;;;;;;5028401;28;20043;-67
2022/01/14 11:10:20;;;;;;;28.73;14.00;;;2.60;99.90;;;;;;5050493;28;20029;-67
2022/01/14 11:12:46;;;;;;;27.42;14.25;;;2.70;99.90;;;;;;5034061;28;20025;-67
2022/01/14 11:15:13;;;;;;;25.00;14.48;;;2.80;99.90;;;;;;5047590;28;20032;-67
2022/01/14 11:17:40;;;;;;;23.85;13.75;;;2.80;99.90;;;;;;5032234;28;20358;-66
2022/01/14 11:20:09;;;;;;;24.88;13.85;;;2.90;99.90;;;;;;5032558;28;20045;-67
2022/01/14 11:25:04;;;;;;;22.55;13.45;;;2.90;99.90;;;;;;5032419;28;20037;-66
2022/01/14 11:27:31;;;;;;;24.80;13.77;;;3.00;99.90;;;;;;5032381;28;20048;-66
2022/01/14 11:29:58;;;;;;;23.38;12.90;;;3.00;99.90;;;;;;5011556;28;20037;-67
2022/01/14 11:32:25;;;;;;;20.63;12.30;;;3.10;99.90;;;;;;4997734;28;20021;-65
2022/01/14 11:34:51;;;;;;;21.02;12.88;;;3.10;99.90;;;;;;5012676;28;20021;-66
2022/01/14 11:37:34;;;;;;;18.60;10.85;;;3.20;99.90;;;;;;5019036;28;20041;-67
2022/01/14 11:40:06;;;;;;;18.73;11.30;;;3.30;99.90;;;;;;5013501;28;20075;-66
2022/01/14 11:42:39;;;;;;;18.17;11.35;;;3.30;99.90;;;;;;5013579;28;20040;-66
2022/01/14 11:45:06;;;;;;;19.30;10.68;;;3.30;99.90;;;;;;5013278;28;20120;-66
2022/01/14 11:47:43;;;;;;;16.20;10.63;;;3.40;99.90;;;;;;5012272;28;20026;-65
2022/01/14 11:50:18;;;;;;;16.45;10.77;;;3.40;99.90;;;;;;5013738;28;20030;-66
2022/01/14 11:52:44;;;;;;;18.33;10.65;;;3.50;99.90;;;;;;5013419;28;20112;-65
2022/01/14 11:55:22;;;;;;;16.50;10.60;;;3.60;99.90;;;;;;5013876;28;20025;-66
2022/01/14 11:57:58;;;;;;;20.17;11.10;;;3.60;99.90;;;;;;5015448;28;20386;-65
2022/01/14 12:02:59;;;;;;;19.75;11.23;;;3.60;99.90;;;;;;5034639;28;20033;-66
2022/01/14 12:05:25;;;;;;;;;;;3.70;99.90;;;;;;5017921;28;20026;-65
2022/01/14 12:08:07;;;;;;;20.50;11.63;;;3.70;99.90;;;;;;5014020;28;19940;-68
2022/01/14 12:10:37;;;;;;;19.15;10.85;;;3.80;99.90;;;;;;5017659;28;20030;-65
2022/01/14 12:13:28;;;;;;;20.08;11.68;;;3.90;99.90;;;;;;5034508;28;20029;-66
2022/01/14 12:15:59;;;;;;;18.63;11.50;;;4.00;99.90;;;;;;5016708;28;20021;-66
2022/01/14 12:18:49;;;;;;;19.83;11.38;;;4.30;99.90;;;;;;5015317;28;20108;-67
2022/01/14 12:21:16;;;;;;;21.45;11.65;;;4.60;99.90;;;;;;5005918;28;20029;-66
2022/01/14 12:23:43;;;;;;;19.48;11.18;;;5.00;99.90;;;;;;5015778;28;20041;-65
2022/01/14 12:26:18;;;;;;;17.45;11.30;;;5.10;99.90;;;;;;5016790;28;20116;-69
2022/01/14 12:28:45;;;;;;;21.08;12.13;;;5.30;99.90;;;;;;5015649;28;20076;-67
2022/01/14 12:31:11;;;;;;;17.50;11.10;;;5.50;99.90;;;;;;5017104;28;20025;-65
2022/01/14 12:33:48;;;;;;;17.17;11.02;;;5.60;99.90;;;;;;5016276;28;20383;-66
2022/01/14 12:36:19;;;;;;;17.88;10.32;;;5.80;99.90;;;;;;5020998;28;20017;-66
2022/01/14 12:38:46;;;;;;;17.77;10.10;;;6.10;99.90;;;;;;5026531;28;20075;-66
2022/01/14 12:41:19;;;;;;;18.27;10.60;;;6.30;99.90;;;;;;5024075;28;20029;-67
2022/01/14 12:43:56;;;;;;;18.33;11.50;;;6.60;99.90;;;;;;5019667;28;20374;-66
2022/01/14 12:46:46;;;;;;;19.08;11.18;;;6.90;99.90;;;;;;5016620;28;20036;-66
2022/01/14 12:49:19;;;;;;;16.25;10.35;;;7.30;99.90;;;;;;5015765;28;20037;-66
2022/01/14 12:51:45;;;;;;;17.88;9.77;;;7.60;99.90;;;;;;5016251;28;20083;-66
2022/01/14 12:54:11;;;;;;;16.60;10.50;;;7.80;99.90;;;;;;5015751;28;20021;-66
2022/01/14 12:56:39;;;;;;;15.18;10.20;;;7.90;99.90;;;;;;5016188;28;20026;-66
2022/01/14 12:59:14;;;;;;;17.42;10.07;;;8.10;99.90;;;;;;5015448;28;20030;-66
2022/01/14 13:01:41;;;;;;;15.30;10.02;;;8.30;99.90;;;;;;5016522;28;20028;-65
2022/01/14 13:04:12;;;;;;;15.35;9.80;;;8.40;99.90;;;;;;5015679;28;20041;-66
2022/01/14 13:06:46;;;;;;;16.65;10.38;;;8.50;99.90;;;;;;5016368;28;20063;-67
2022/01/14 13:09:18;;;;;;;18.88;10.20;;;8.70;99.90;;;;;;5015093;28;20389;-67
2022/01/14 13:11:58;;;;;;;15.45;9.57;;;8.80;99.90;;;;;;5014400;28;20076;-67
2022/01/14 13:14:50;;;;;;;15.93;10.20;;;8.90;99.90;;;;;;5014572;28;20044;-67
2022/01/14 13:17:26;;;;;;;16.45;9.70;;;9.00;99.90;;;;;;5015348;28;20029;-66
2022/01/14 13:19:57;;;;;;;16.65;9.73;;;9.10;99.90;;;;;;5014775;28;20030;-67
2022/01/14 13:22:23;;;;;;;19.58;11.68;;;9.20;99.90;;;;;;5015627;28;20035;-66
2022/01/14 13:24:54;;;;;;;15.73;9.30;;;9.40;99.90;;;;;;5021059;28;20109;-67
2022/01/14 13:27:23;;;;;;;14.50;8.95;;;9.60;99.90;;;;;;5014860;28;20025;-67
2022/01/14 13:29:57;;;;;;;15.15;9.30;;;9.70;99.90;;;;;;5015327;28;20026;-67
2022/01/14 13:32:26;;;;;;;13.77;9.10;;;9.80;99.90;;;;;;5015681;28;20021;-67
2022/01/14 13:34:55;;;;;;;13.00;8.60;;;9.90;99.90;;;;;;5015786;28;20021;-67
2022/01/14 13:37:26;;;;;;;14.63;9.00;;;9.90;99.90;;;;;;5022894;28;20018;-66
2022/01/14 13:40:16;;;;;;;15.27;8.63;;;10.00;99.90;;;;;;5014797;28;20098;-67
2022/01/14 13:43:02;;;;;;;14.80;9.30;;;10.10;99.90;;;;;;5022579;28;20025;-67
2022/01/14 13:45:28;;;;;;;13.63;8.20;;;10.20;99.90;;;;;;5014229;28;20497;-67
2022/01/14 13:48:23;;;;;;;13.57;8.70;;;10.20;99.90;;;;;;5012026;28;20075;-67
2022/01/14 13:50:51;;;;;;;13.98;8.88;;;10.30;99.90;;;;;;5015144;28;20458;-67
2022/01/14 13:53:22;;;;;;;14.27;8.55;;;10.40;99.90;;;;;;5015243;28;20083;-66
2022/01/14 13:55:51;;;;;;;13.80;8.35;;;10.60;99.90;;;;;;5023157;28;20052;-66
2022/01/14 13:58:24;;;;;;;12.75;8.80;;;10.60;99.90;;;;;;5014576;28;20028;-66
2022/01/14 14:00:51;;;;;;;15.45;9.25;;;10.70;99.90;;;;;;5011363;28;20030;-68
2022/01/14 14:03:18;;;;;;;13.00;8.88;;;10.60;99.90;;;;;;5014441;28;20029;-66
2022/01/14 14:05:55;;;;;;;13.10;8.60;;;10.70;99.90;;;;;;5015283;28;20037;-66
2022/01/14 14:17:12;;;;;;;15.30;8.13;;;11.20;99.90;;;;;;5032523;28;20040;-66
2022/01/14 14:19:41;;;;;;;;;;;11.20;99.90;;;;;;5017744;28;20248;-67
2022/01/14 14:22:06;;;;;;;14.10;8.73;;;11.30;99.90;;;;;;5014381;28;20003;-67
2022/01/14 14:24:32;;;;;;;12.13;8.35;;;11.30;99.90;;;;;;5014114;28;20057;-67
2022/01/14 14:27:13;;;;;;;16.88;9.80;;;11.30;99.90;;;;;;5011451;28;20036;-66
2022/01/14 14:29:50;;;;;;;15.00;9.60;;;11.40;99.90;;;;;;5010784;28;20048;-69
2022/01/14 14:32:37;;;;;;;13.52;8.82;;;11.40;99.90;;;;;;5010323;28;20029;-69
2022/01/14 14:35:07;;;;;;;12.90;9.13;;;11.50;99.90;;;;;;5010289;28;20689;-67
2022/01/14 14:37:37;;;;;;;16.45;10.63;;;11.50;99.90;;;;;;5010837;28;20088;-66
2022/01/14 14:40:13;;;;;;;18.08;11.30;;;11.50;99.90;;;;;;5010953;28;20030;-66
2022/01/14 14:42:39;;;;;;;13.88;9.30;;;11.40;99.90;;;;;;5006777;28;20053;-66
2022/01/14 14:45:05;;;;;;;13.75;8.80;;;11.40;99.90;;;;;;5010850;28;20680;-67
2022/01/14 14:47:31;;;;;;;15.75;9.57;;;11.40;99.90;;;;;;5009533;28;20033;-67
2022/01/14 14:49:57;;;;;;;14.80;8.88;;;11.40;99.90;;;;;;5010622;28;20532;-67
2022/01/14 14:52:22;;;;;;;36.08;21.55;;;11.30;99.90;;;;;;5010223;28;20026;-68
2022/01/14 14:54:51;;;;;;;19.08;12.30;;;11.10;99.90;;;;;;5010826;28;20029;-67
2022/01/14 14:57:18;;;;;;;17.00;9.50;;;10.80;99.90;;;;;;5027958;28;20508;-67
2022/01/14 14:59:43;;;;;;;15.65;10.02;;;10.50;99.90;;;;;;5009919;28;20029;-67
2022/01/14 15:02:13;;;;;;;17.92;10.85;;;10.20;99.90;;;;;;5010863;28;20030;-67
2022/01/14 15:04:39;;;;;;;18.67;10.00;;;9.90;99.90;;;;;;5009626;28;20048;-66
2022/01/14 15:07:06;;;;;;;15.55;10.07;;;9.60;99.90;;;;;;5010432;28;20075;-67
2022/01/14 15:09:32;;;;;;;18.45;11.20;;;9.40;99.90;;;;;;5011807;28;20029;-66
2022/01/14 15:11:58;;;;;;;15.27;10.30;;;9.20;99.90;;;;;;5008908;28;20057;-67
2022/01/14 15:14:25;;;;;;;17.35;10.25;;;8.90;99.90;;;;;;5011102;28;20058;-66
2022/01/14 15:19:19;;;;;;;17.25;11.00;;;8.50;99.90;;;;;;5028428;28;20041;-66
2022/01/14 15:21:45;;;;;;;16.23;11.07;;;8.30;99.90;;;;;;5010705;28;20541;-69
2022/01/14 15:24:11;;;;;;;19.73;11.55;;;8.20;99.90;;;;;;5009870;28;20132;-65
2022/01/14 15:26:37;;;;;;;18.77;11.18;;;8.00;99.90;;;;;;5008526;28;20052;-66
2022/01/14 15:29:03;;;;;;;20.02;11.57;;;7.80;99.90;;;;;;5010191;28;20029;-66
2022/01/14 15:31:28;;;;;;;18.60;11.65;;;7.60;99.90;;;;;;5011714;28;20518;-67
2022/01/14 15:33:54;;;;;;;17.45;11.43;;;7.50;99.90;;;;;;5013600;28;20120;-66
2022/01/14 15:36:21;;;;;;;18.25;11.48;;;7.40;99.90;;;;;;5016909;28;20120;-66
2022/01/14 15:38:47;;;;;;;20.85;11.40;;;7.30;99.90;;;;;;5033424;28;20033;-66
2022/01/14 15:41:13;;;;;;;19.60;11.95;;;7.20;99.90;;;;;;5014899;28;20548;-66
2022/01/14 15:43:39;;;;;;;21.10;13.00;;;7.10;99.90;;;;;;5009476;28;20033;-66
2022/01/14 15:46:08;;;;;;;20.65;12.30;;;7.00;99.90;;;;;;5033001;28;20104;-65
2022/01/14 15:48:34;;;;;;;20.65;11.50;;;6.90;99.90;;;;;;5012759;28;20025;-66
2022/01/14 15:51:00;;;;;;;19.75;11.95;;;6.70;99.90;;;;;;5014258;28;20062;-65
2022/01/14 15:53:26;;;;;;;17.75;11.45;;;6.60;99.90;;;;;;5014120;28;20029;-65
2022/01/14 15:55:53;;;;;;;20.77;12.13;;;6.40;99.90;;;;;;5013958;28;20030;-65
2022/01/14 15:58:19;;;;;;;19.23;12.30;;;6.20;99.90;;;;;;5013287;28;20025;-68
2022/01/14 16:00:46;;;;;;;18.65;12.10;;;6.20;99.90;;;;;;5013573;28;20033;-68
2022/01/14 16:03:12;;;;;;;21.60;12.55;;;6.00;99.90;;;;;;5014154;28;20033;-66
2022/01/14 16:05:37;;;;;;;24.50;12.43;;;5.90;99.90;;;;;;5013618;28;20037;-68
2022/01/14 16:08:04;;;;;;;19.25;12.70;;;5.80;99.90;;;;;;5013055;28;20029;-66
2022/01/14 16:10:30;;;;;;;28.23;16.77;;;5.70;99.90;;;;;;5013633;28;20098;-66
2022/01/14 16:12:58;;;;;;;21.83;13.02;;;5.70;99.90;;;;;;5021813;28;20478;-66
2022/01/14 16:15:24;;;;;;;23.20;13.25;;;5.60;99.90;;;;;;5013422;28;20078;-66
2022/01/14 16:17:50;;;;;;;21.80;13.32;;;5.50;99.90;;;;;;5012569;28;20106;-66
2022/01/14 16:20:17;;;;;;;25.30;14.38;;;5.40;99.90;;;;;;5013641;28;20096;-66
2022/01/14 16:22:43;;;;;;;23.42;14.30;;;5.20;99.90;;;;;;5013439;28;20116;-66
2022/01/14 16:25:10;;;;;;;22.13;13.88;;;5.20;99.90;;;;;;5012728;28;20963;-66
2022/01/14 16:27:39;;;;;;;22.42;13.75;;;5.10;99.90;;;;;;5015913;28;20037;-66
2022/01/14 16:30:10;;;;;;;23.30;14.57;;;5.00;99.90;;;;;;5010627;28;20033;-65
2022/01/14 16:32:36;;;;;;;25.38;14.38;;;5.00;99.90;;;;;;5005426;28;20025;-66
2022/01/14 16:35:04;;;;;;;22.67;13.25;;;4.90;99.90;;;;;;5030745;28;20029;-65
2022/01/14 16:37:30;;;;;;;23.42;14.68;;;4.90;99.90;;;;;;5012954;28;20116;-67
2022/01/14 16:39:57;;;;;;;24.45;14.18;;;4.80;99.90;;;;;;5003484;28;20033;-66
2022/01/14 16:42:25;;;;;;;21.95;14.15;;;4.80;99.90;;;;;;5011151;28;20604;-66